Time,TemperatureF,DewpointF,PressureIn,WindDirection,WindDirectionDegrees,WindSpeedMPH,WindSpeedGustMPH,Humidity,HourlyPrecipIn,Conditions,Clouds,dailyrainin,SoftwareType,DateUTC
2013-11-12 00:03:00,21.2,17.0,30.66,South,172,0.0,1.0,83,0.00,,,0.00,weatherlink.com 1.10,2013-11-12 07:03:00,
2013-11-12 00:18:00,20.6,17.0,30.66,South,172,0.0,1.0,84,0.00,,,0.00,weatherlink.com 1.10,2013-11-12 07:18:00,
2013-11-12 00:33:00,20.4,17.0,30.67,South,172,0.0,1.0,85,0.00,,,0.00,weatherlink.com 1.10,2013-11-12 07:33:00,
2013-11-12 00:48:00,19.8,16.0,30.67,South,172,1.0,1.0,85,0.00,,,0.00,weatherlink.com 1.10,2013-11-12 07:48:00,
2013-11-12 01:03:00,19.5,16.0,30.67,South,172,1.0,1.0,86,0.00,,,0.00,weatherlink.com 1.10,2013-11-12 08:03:00,
2013-11-12 01:18:00,19.6,16.0,30.66,South,172,0.0,1.0,86,0.00,,,0.00,weatherlink.com 1.10,2013-11-12 08:18:00,
2013-11-12 01:33:00,19.0,16.0,30.67,South,172,0.0,1.0,86,0.00,,,0.00,weatherlink.com 1.10,2013-11-12 08:33:00,
2013-11-12 01:48:00,19.1,16.0,30.67,South,172,0.0,1.0,86,0.00,,,0.00,weatherlink.com 1.10,2013-11-12 08:48:00,
2013-11-12 02:03:00,18.6,15.0,30.67,South,172,1.0,1.0,87,0.00,,,0.00,weatherlink.com 1.10,2013-11-12 09:03:00,
2013-11-12 02:18:00,18.5,15.0,30.68,South,172,0.0,1.0,87,0.00,,,0.00,weatherlink.com 1.10,2013-11-12 09:18:00,
2013-11-12 02:33:00,18.7,16.0,30.68,South,174,0.0,1.0,87,0.00,,,0.00,weatherlink.com 1.10,2013-11-12 09:33:00,
2013-11-12 02:48:00,18.5,15.0,30.69,South,174,0.0,1.0,87,0.00,,,0.00,weatherlink.com 1.10,2013-11-12 09:48:00,
2013-11-12 03:03:00,18.4,15.0,30.69,South,174,0.0,1.0,87,0.00,,,0.00,weatherlink.com 1.10,2013-11-12 10:03:00,
2013-11-12 03:18:00,18.3,15.0,30.69,South,174,0.0,1.0,87,0.00,,,0.00,weatherlink.com 1.10,2013-11-12 10:18:00,
2013-11-12 03:33:00,18.1,15.0,30.70,South,174,0.0,1.0,88,0.00,,,0.00,weatherlink.com 1.10,2013-11-12 10:33:00,
2013-11-12 03:48:00,18.1,15.0,30.70,South,174,0.0,1.0,87,0.00,,,0.00,weatherlink.com 1.10,2013-11-12 10:48:00,
2013-11-12 04:03:00,17.8,15.0,30.71,South,174,1.0,1.0,88,0.00,,,0.00,weatherlink.com 1.10,2013-11-12 11:03:00,
2013-11-12 04:18:00,17.9,15.0,30.71,South,175,1.0,1.0,88,0.00,,,0.00,weatherlink.com 1.10,2013-11-12 11:18:00,
2013-11-12 04:33:00,17.5,15.0,30.72,South,175,0.0,1.0,88,0.00,,,0.00,weatherlink.com 1.10,2013-11-12 11:33:00,
2013-11-12 04:48:00,17.9,15.0,30.73,South,180,1.0,2.0,88,0.00,,,0.00,weatherlink.com 1.10,2013-11-12 11:48:00,
2013-11-12 05:03:00,17.6,14.0,30.73,South,175,0.0,1.0,87,0.00,,,0.00,weatherlink.com 1.10,2013-11-12 12:03:00,
2013-11-12 05:18:00,17.7,15.0,30.74,SSE,165,0.0,1.0,87,0.00,,,0.00,weatherlink.com 1.10,2013-11-12 12:18:00,
2013-11-12 05:33:00,17.5,15.0,30.75,SSE,166,0.0,1.0,88,0.00,,,0.00,weatherlink.com 1.10,2013-11-12 12:33:00,
2013-11-12 05:48:00,17.2,14.0,30.74,SSE,166,0.0,1.0,88,0.00,,,0.00,weatherlink.com 1.10,2013-11-12 12:48:00,
2013-11-12 06:03:00,16.7,14.0,30.75,SSE,166,0.0,1.0,89,0.00,,,0.00,weatherlink.com 1.10,2013-11-12 13:03:00,
2013-11-12 06:18:00,16.7,14.0,30.75,SSE,165,0.0,1.0,89,0.00,,,0.00,weatherlink.com 1.10,2013-11-12 13:18:00,
2013-11-12 06:34:00,16.4,14.0,30.75,SSE,165,0.0,0.0,89,0.00,,,0.00,weatherlink.com 1.10,2013-11-12 13:34:00,
2013-11-12 06:49:00,15.9,14.0,30.74,SSE,165,0.0,0.0,91,0.00,,,0.00,weatherlink.com 1.10,2013-11-12 13:49:00,
2013-11-12 07:04:00,16.5,14.0,30.75,South,176,0.0,1.0,90,0.00,,,0.00,weatherlink.com 1.10,2013-11-12 14:04:00,
2013-11-12 07:19:00,16.4,14.0,30.76,South,176,0.0,1.0,90,0.00,,,0.00,weatherlink.com 1.10,2013-11-12 14:19:00,
2013-11-12 07:34:00,16.1,14.0,30.76,South,176,0.0,0.0,90,0.00,,,0.00,weatherlink.com 1.10,2013-11-12 14:34:00,
2013-11-12 07:49:00,16.7,15.0,30.76,South,176,1.0,1.0,91,0.00,,,0.00,weatherlink.com 1.10,2013-11-12 14:49:00,
2013-11-12 08:04:00,17.7,16.0,30.76,South,176,0.0,1.0,91,0.00,,,0.00,weatherlink.com 1.10,2013-11-12 15:04:00,
2013-11-12 08:19:00,18.7,17.0,30.76,South,176,0.0,0.0,91,0.00,,,0.00,weatherlink.com 1.10,2013-11-12 15:19:00,
2013-11-12 08:34:00,19.8,17.0,30.75,SSE,166,0.0,0.0,90,0.00,,,0.00,weatherlink.com 1.10,2013-11-12 15:34:00,
2013-11-12 08:49:00,23.9,20.0,30.75,SSE,167,0.0,0.0,84,0.00,,,0.00,weatherlink.com 1.10,2013-11-12 15:49:00,
2013-11-12 09:04:00,24.4,19.0,30.74,SSE,166,0.0,0.0,80,0.00,,,0.00,weatherlink.com 1.10,2013-11-12 16:04:00,
2013-11-12 09:19:00,26.5,21.0,30.73,SSE,157,0.0,0.0,79,0.00,,,0.00,weatherlink.com 1.10,2013-11-12 16:19:00,
2013-11-12 09:34:00,30.6,21.0,30.73,SSE,157,0.0,0.0,68,0.00,,,0.00,weatherlink.com 1.10,2013-11-12 16:34:00,
2013-11-12 09:49:00,32.9,21.0,30.73,SE,129,1.0,4.0,63,0.00,,,0.00,weatherlink.com 1.10,2013-11-12 16:49:00,
2013-11-12 10:04:00,34.6,21.0,30.72,SSE,162,1.0,1.0,59,0.00,,,0.00,weatherlink.com 1.10,2013-11-12 17:04:00,
2013-11-12 10:19:00,35.9,21.0,30.71,SE,135,1.0,2.0,55,0.00,,,0.00,weatherlink.com 1.10,2013-11-12 17:19:00,
2013-11-12 10:34:00,39.1,23.0,30.70,SE,125,2.0,2.0,52,0.00,,,0.00,weatherlink.com 1.10,2013-11-12 17:34:00,
2013-11-12 10:49:00,43.2,18.0,30.69,SE,130,2.0,10.0,37,0.00,,,0.00,weatherlink.com 1.10,2013-11-12 17:49:00,
2013-11-12 11:04:00,44.6,19.0,30.68,SE,124,3.0,10.0,36,0.00,,,0.00,weatherlink.com 1.10,2013-11-12 18:04:00,
2013-11-12 11:19:00,45.3,18.0,30.67,ESE,113,10.0,12.0,34,0.00,,,0.00,weatherlink.com 1.10,2013-11-12 18:19:00,
2013-11-12 11:35:00,45.7,17.0,30.66,SE,131,6.0,13.0,32,0.00,,,0.00,weatherlink.com 1.10,2013-11-12 18:35:00,
2013-11-12 11:50:00,46.0,17.0,30.64,ESE,120,8.0,13.0,31,0.00,,,0.00,weatherlink.com 1.10,2013-11-12 18:50:00,
2013-11-12 12:05:00,46.7,17.0,30.64,ESE,110,7.0,14.0,31,0.00,,,0.00,weatherlink.com 1.10,2013-11-12 19:05:00,
2013-11-12 12:20:00,47.2,17.0,30.63,SE,124,3.0,11.0,30,0.00,,,0.00,weatherlink.com 1.10,2013-11-12 19:20:00,
2013-11-12 12:35:00,47.9,18.0,30.62,ESE,119,8.0,11.0,30,0.00,,,0.00,weatherlink.com 1.10,2013-11-12 19:35:00,
2013-11-12 12:50:00,48.2,17.0,30.61,ESE,118,7.0,14.0,29,0.00,,,0.00,weatherlink.com 1.10,2013-11-12 19:50:00,
2013-11-12 13:05:00,49.1,17.0,30.61,ESE,115,9.0,11.0,28,0.00,,,0.00,weatherlink.com 1.10,2013-11-12 20:05:00,
2013-11-12 13:20:00,48.7,15.0,30.61,SE,131,5.0,11.0,26,0.00,,,0.00,weatherlink.com 1.10,2013-11-12 20:20:00,
2013-11-12 13:35:00,49.5,15.0,30.60,SE,127,9.0,11.0,25,0.00,,,0.00,weatherlink.com 1.10,2013-11-12 20:35:00,
2013-11-12 13:50:00,50.0,15.0,30.60,ESE,120,5.0,10.0,25,0.00,,,0.00,weatherlink.com 1.10,2013-11-12 20:50:00,
2013-11-12 14:05:00,50.0,14.0,30.60,SE,142,2.0,11.0,24,0.00,,,0.00,weatherlink.com 1.10,2013-11-12 21:05:00,
2013-11-12 14:20:00,50.0,14.0,30.60,SE,124,2.0,10.0,24,0.00,,,0.00,weatherlink.com 1.10,2013-11-12 21:20:00,
2013-11-12 14:35:00,50.1,12.0,30.60,SE,133,1.0,8.0,22,0.00,,,0.00,weatherlink.com 1.10,2013-11-12 21:35:00,
2013-11-12 14:50:00,49.6,14.0,30.59,SE,129,2.0,8.0,24,0.00,,,0.00,weatherlink.com 1.10,2013-11-12 21:50:00,
2013-11-12 15:05:00,49.1,17.0,30.59,ESE,111,4.0,5.0,28,0.00,,,0.00,weatherlink.com 1.10,2013-11-12 22:05:00,
2013-11-12 15:20:00,48.5,13.0,30.59,SE,136,3.0,6.0,24,0.00,,,0.00,weatherlink.com 1.10,2013-11-12 22:20:00,
2013-11-12 15:35:00,44.9,20.0,30.59,SSE,162,1.0,2.0,37,0.00,,,0.00,weatherlink.com 1.10,2013-11-12 22:35:00,
2013-11-12 15:50:00,40.6,20.0,30.59,SSE,157,1.0,1.0,43,0.00,,,0.00,weatherlink.com 1.10,2013-11-12 22:50:00,
2013-11-12 16:05:00,37.2,18.0,30.58,South,174,1.0,2.0,47,0.00,,,0.00,weatherlink.com 1.10,2013-11-12 23:05:00,
2013-11-12 16:20:00,34.0,19.0,30.59,South,174,1.0,2.0,54,0.00,,,0.00,weatherlink.com 1.10,2013-11-12 23:20:00,
2013-11-12 16:35:00,31.7,19.0,30.60,South,174,2.0,2.0,60,0.00,,,0.00,weatherlink.com 1.10,2013-11-12 23:35:00,
2013-11-12 16:50:00,30.3,18.0,30.60,South,187,2.0,2.0,60,0.00,,,0.00,weatherlink.com 1.10,2013-11-12 23:50:00,
2013-11-12 17:05:00,29.4,17.0,30.61,South,181,1.0,2.0,61,0.00,,,0.00,weatherlink.com 1.10,2013-11-13 00:05:00,
2013-11-12 17:20:00,29.2,17.0,30.61,SSW,196,2.0,3.0,61,0.00,,,0.00,weatherlink.com 1.10,2013-11-13 00:20:00,
2013-11-12 17:35:00,28.5,17.0,30.62,South,190,2.0,2.0,63,0.00,,,0.00,weatherlink.com 1.10,2013-11-13 00:35:00,
2013-11-12 17:50:00,28.4,17.0,30.62,South,177,1.0,2.0,62,0.00,,,0.00,weatherlink.com 1.10,2013-11-13 00:50:00,
2013-11-12 18:05:00,27.9,18.0,30.63,SSE,168,1.0,2.0,66,0.00,,,0.00,weatherlink.com 1.10,2013-11-13 01:05:00,
2013-11-12 18:20:00,27.5,17.0,30.64,SSE,168,0.0,1.0,65,0.00,,,0.00,weatherlink.com 1.10,2013-11-13 01:20:00,
2013-11-12 18:35:00,27.4,16.0,30.65,SSW,195,1.0,3.0,63,0.00,,,0.00,weatherlink.com 1.10,2013-11-13 01:35:00,
2013-11-12 18:50:00,27.2,16.0,30.65,South,176,1.0,1.0,64,0.00,,,0.00,weatherlink.com 1.10,2013-11-13 01:50:00,
2013-11-12 19:05:00,26.7,17.0,30.66,South,175,0.0,1.0,67,0.00,,,0.00,weatherlink.com 1.10,2013-11-13 02:05:00,
2013-11-12 19:20:00,26.2,16.0,30.66,South,175,0.0,1.0,65,0.00,,,0.00,weatherlink.com 1.10,2013-11-13 02:20:00,
2013-11-12 19:35:00,26.1,17.0,30.66,South,175,0.0,1.0,68,0.00,,,0.00,weatherlink.com 1.10,2013-11-13 02:35:00,
2013-11-12 19:50:00,25.7,17.0,30.66,South,170,0.0,2.0,69,0.00,,,0.00,weatherlink.com 1.10,2013-11-13 02:50:00,
2013-11-12 20:05:00,24.3,17.0,30.67,South,170,0.0,1.0,75,0.00,,,0.00,weatherlink.com 1.10,2013-11-13 03:05:00,
2013-11-12 20:20:00,24.0,17.0,30.67,South,170,0.0,1.0,73,0.00,,,0.00,weatherlink.com 1.10,2013-11-13 03:20:00,
2013-11-12 20:35:00,23.9,16.0,30.67,South,170,0.0,1.0,72,0.00,,,0.00,weatherlink.com 1.10,2013-11-13 03:35:00,
2013-11-12 20:50:00,23.5,16.0,30.68,South,170,1.0,1.0,73,0.00,,,0.00,weatherlink.com 1.10,2013-11-13 03:50:00,
2013-11-12 21:05:00,23.2,16.0,30.67,South,172,1.0,2.0,73,0.00,,,0.00,weatherlink.com 1.10,2013-11-13 04:05:00,
2013-11-12 21:20:00,22.9,16.0,30.67,South,172,0.0,1.0,74,0.00,,,0.00,weatherlink.com 1.10,2013-11-13 04:20:00,
2013-11-12 21:35:00,21.9,16.0,30.67,South,172,0.0,1.0,77,0.00,,,0.00,weatherlink.com 1.10,2013-11-13 04:35:00,
2013-11-12 21:50:00,21.4,16.0,30.67,South,172,0.0,1.0,78,0.00,,,0.00,weatherlink.com 1.10,2013-11-13 04:50:00,
2013-11-12 22:05:00,21.1,15.0,30.67,South,172,1.0,1.0,78,0.00,,,0.00,weatherlink.com 1.10,2013-11-13 05:05:00,
2013-11-12 22:20:00,21.2,15.0,30.67,South,172,0.0,1.0,77,0.00,,,0.00,weatherlink.com 1.10,2013-11-13 05:20:00,
2013-11-12 22:35:00,21.7,15.0,30.66,South,176,1.0,2.0,74,0.00,,,0.00,weatherlink.com 1.10,2013-11-13 05:35:00,
2013-11-12 22:50:00,21.1,15.0,30.66,South,176,0.0,1.0,76,0.00,,,0.00,weatherlink.com 1.10,2013-11-13 05:50:00,
2013-11-12 23:05:00,20.4,14.0,30.66,SSE,166,0.0,1.0,77,0.00,,,0.00,weatherlink.com 1.10,2013-11-13 06:05:00,
2013-11-12 23:20:00,19.9,14.0,30.66,South,178,1.0,1.0,79,0.00,,,0.00,weatherlink.com 1.10,2013-11-13 06:20:00,
2013-11-12 23:35:00,20.0,14.0,30.66,South,174,1.0,1.0,78,0.00,,,0.00,weatherlink.com 1.10,2013-11-13 06:35:00,
2013-11-12 23:50:00,19.5,14.0,30.66,South,174,0.0,1.0,79,0.00,,,0.00,weatherlink.com 1.10,2013-11-13 06:50:00,